Suomigracht — PHBT — position and weather

sailwx.info

Track history (hours):
 
Tides and Currents Weather Stations Pressure Air Temp Water Temp Dewpoint Dewpoint Depression Visibility Wind Speed Wind Dir Waves Ship Positions

Suomigracht

Last reported at 2014-Jul-19 23:10 UTC. Time now 2014-Jul-25 11:27 UTC.
Position N 38°24' W 030°25'.

Length 173 m; beam 26 m.

Type: Cargo ship. MMSI: 246100000.

Date/timePositionNaut miles runAvg speedWind from/ knotsBaromVisibWave heightAir tempDewpointWater temp
2014-Jul-19 23:10N 38°24' W 030°25'1016.1
2014-Jul-19 22:33N 38°23' W 030°12'1515.4
2014-Jul-19 21:34N 38°20' W 029°53'1515.2
2014-Jul-19 20:34N 38°18' W 029°34'1515.4
2014-Jul-19 19:34N 38°19' W 029°14'1515.2
2014-Jul-19 18:34N 38°19' W 028°55'1515.3
2014-Jul-19 17:34N 38°19' W 028°35'1514.8
2014-Jul-19 16:34N 38°19' W 028°17'1515.1
2014-Jul-19 15:34N 38°20' W 027°57'1615.6
2014-Jul-19 14:33N 38°23' W 027°38'1514.9
2014-Jul-19 13:34N 38°25' W 027°19'1515.0
2014-Jul-19 12:34N 38°28' W 027°00'1615.8
2014-Jul-19 11:34N 38°32' W 026°40'1515.0
2014-Jul-19 10:34N 38°35' W 026°22'1515.0
2014-Jul-19 09:33N 38°39' W 026°03'1514.8
2014-Jul-19 08:34N 38°42' W 025°45'1515.3
2014-Jul-19 07:34N 38°44' W 025°25'1515.0
2014-Jul-19 06:33N 38°47' W 025°06'2114.8
2014-Jul-19 05:07N 38°50' W 024°39'1014.9
2014-Jul-19 04:28N 38°51' W 024°27'2015.1
2014-Jul-19 03:09N 38°55' W 024°02'915.1
2014-Jul-19 02:33N 38°57' W 023°51'  
2014-Jul-15 14:33N 38°13' W 009°42'1414.2
2014-Jul-15 13:33N 37°59' W 009°38'1414.3
2014-Jul-15 12:32N 37°45' W 009°34'1613.7
2014-Jul-15 11:24N 37°29' W 009°29'1213.9
2014-Jul-15 10:33N 37°18' W 009°26'1514.3
2014-Jul-15 09:32N 37°04' W 009°22'1313.5
2014-Jul-15 08:33N 36°52' W 009°16'1413.9
2014-Jul-15 07:33N 36°43' W 009°02'1414.5
2014-Jul-15 06:33N 36°39' W 008°45'1514.6
2014-Jul-15 05:33N 36°34' W 008°28'1515.2
2014-Jul-15 04:33N 36°29' W 008°10'1715.2
2014-Jul-15 03:25N 36°24' W 007°49'2915.3
2014-Jul-15 01:29N 36°15' W 007°15'1415.2
2014-Jul-15 00:33N 36°10' W 006°58'7114.1
2014-Jul-14 19:33N 35°59' W 005°32'1110.2
2014-Jul-14 18:27N 36°07' W 005°22'0 0.1
2014-Jul-14 16:24N 36°07' W 005°21'0 0.0
2014-Jul-14 15:30N 36°07' W 005°21'0 0.1
2014-Jul-14 14:33N 36°07' W 005°21'0 0.1
2014-Jul-14 13:33N 36°07' W 005°21'38311.8
2014-Jul-13 05:07N 36°58' E 002°31'3015.9
2014-Jul-13 03:12N 37°03' E 003°08'51114.3
2014-Jul-11 15:33N 36°40' E 013°47'1313.1
2014-Jul-11 14:33N 36°36' E 014°02'1313.2
2014-Jul-11 13:33N 36°32' E 014°18'1312.9
2014-Jul-11 12:33N 36°27' E 014°33'  
Track history (hours):
 
Tides and Currents Weather Stations Pressure Air Temp Water Temp Dewpoint Dewpoint Depression Visibility Wind Speed Wind Dir Waves Ship Positions

Suomigracht

Last reported at 2014-Jul-19 23:10 UTC. Time now 2014-Jul-25 11:27 UTC.
Position N 38°24' W 030°25'.

Length 173 m; beam 26 m.

Type: Cargo ship. MMSI: 246100000.

Date/timePositionNaut miles runAvg speedWind from/ knotsBaromVisibWave heightAir tempDewpointWater temp
2014-Jul-19 23:10N 38°24' W 030°25'1016.1
2014-Jul-19 22:33N 38°23' W 030°12'1515.4
2014-Jul-19 21:34N 38°20' W 029°53'1515.2
2014-Jul-19 20:34N 38°18' W 029°34'1515.4
2014-Jul-19 19:34N 38°19' W 029°14'1515.2
2014-Jul-19 18:34N 38°19' W 028°55'1515.3
2014-Jul-19 17:34N 38°19' W 028°35'1514.8
2014-Jul-19 16:34N 38°19' W 028°17'1515.1
2014-Jul-19 15:34N 38°20' W 027°57'1615.6
2014-Jul-19 14:33N 38°23' W 027°38'1514.9
2014-Jul-19 13:34N 38°25' W 027°19'1515.0
2014-Jul-19 12:34N 38°28' W 027°00'1615.8
2014-Jul-19 11:34N 38°32' W 026°40'1515.0
2014-Jul-19 10:34N 38°35' W 026°22'1515.0
2014-Jul-19 09:33N 38°39' W 026°03'1514.8
2014-Jul-19 08:34N 38°42' W 025°45'1515.3
2014-Jul-19 07:34N 38°44' W 025°25'1515.0
2014-Jul-19 06:33N 38°47' W 025°06'2114.8
2014-Jul-19 05:07N 38°50' W 024°39'1014.9
2014-Jul-19 04:28N 38°51' W 024°27'2015.1
2014-Jul-19 03:09N 38°55' W 024°02'915.1
2014-Jul-19 02:33N 38°57' W 023°51'  
2014-Jul-15 14:33N 38°13' W 009°42'1414.2
2014-Jul-15 13:33N 37°59' W 009°38'1414.3
2014-Jul-15 12:32N 37°45' W 009°34'1613.7
2014-Jul-15 11:24N 37°29' W 009°29'1213.9
2014-Jul-15 10:33N 37°18' W 009°26'1514.3
2014-Jul-15 09:32N 37°04' W 009°22'1313.5
2014-Jul-15 08:33N 36°52' W 009°16'1413.9
2014-Jul-15 07:33N 36°43' W 009°02'1414.5
2014-Jul-15 06:33N 36°39' W 008°45'1514.6
2014-Jul-15 05:33N 36°34' W 008°28'1515.2
2014-Jul-15 04:33N 36°29' W 008°10'1715.2
2014-Jul-15 03:25N 36°24' W 007°49'2915.3
2014-Jul-15 01:29N 36°15' W 007°15'1415.2
2014-Jul-15 00:33N 36°10' W 006°58'7114.1
2014-Jul-14 19:33N 35°59' W 005°32'1110.2
2014-Jul-14 18:27N 36°07' W 005°22'0 0.1
2014-Jul-14 16:24N 36°07' W 005°21'0 0.0
2014-Jul-14 15:30N 36°07' W 005°21'0 0.1
2014-Jul-14 14:33N 36°07' W 005°21'0 0.1
2014-Jul-14 13:33N 36°07' W 005°21'38311.8
2014-Jul-13 05:07N 36°58' E 002°31'3015.9
2014-Jul-13 03:12N 37°03' E 003°08'51114.3
2014-Jul-11 15:33N 36°40' E 013°47'1313.1
2014-Jul-11 14:33N 36°36' E 014°02'1313.2
2014-Jul-11 13:33N 36°32' E 014°18'1312.9
2014-Jul-11 12:33N 36°27' E 014°33'  

Dump ship's entire track history